createdAt,value
2022-10-02T00:02:56.709Z,12.89
2022-10-02T00:11:03.756Z,12.97
2022-10-02T00:19:16.270Z,13.01
2022-10-02T00:30:29.306Z,12.98
2022-10-02T00:48:25.024Z,12.64
2022-10-02T00:53:44.657Z,12.55
2022-10-02T00:56:30.321Z,12.43
2022-10-02T01:19:40.293Z,11.84
2022-10-02T01:28:23.991Z,11.90
2022-10-02T01:43:08.128Z,11.78
2022-10-02T01:49:04.080Z,11.71
2022-10-02T01:54:39.681Z,11.67
2022-10-02T02:03:05.651Z,11.77
2022-10-02T02:05:54.025Z,11.67
2022-10-02T02:11:25.279Z,11.69
2022-10-02T02:16:54.865Z,11.76
2022-10-02T02:19:35.601Z,11.78
2022-10-02T02:22:26.744Z,11.81
2022-10-02T02:34:07.514Z,11.90
2022-10-02T02:52:08.786Z,11.72
2022-10-02T02:54:54.656Z,11.73
2022-10-02T03:03:30.736Z,11.69
2022-10-02T03:52:04.568Z,11.28
2022-10-02T03:54:36.118Z,11.11
2022-10-02T03:57:06.630Z,11.21
2022-10-02T04:02:31.977Z,11.05
2022-10-02T04:05:13.082Z,11.04
2022-10-02T04:07:52.877Z,11.11
2022-10-02T04:10:40.529Z,11.12
2022-10-02T04:13:28.640Z,11.07
2022-10-02T04:21:38.576Z,10.97
2022-10-02T04:24:16.246Z,10.97
2022-10-02T04:35:38.161Z,10.88
2022-10-02T04:44:11.499Z,11.26
2022-10-02T04:47:02.337Z,11.23
2022-10-02T04:49:44.124Z,11.18
2022-10-02T04:52:25.773Z,11.11
2022-10-02T04:55:01.683Z,10.98
2022-10-02T04:57:46.510Z,11.05
2022-10-02T05:00:24.240Z,11.06
2022-10-02T05:05:53.644Z,10.88
2022-10-02T05:08:43.578Z,10.89
2022-10-02T05:14:25.685Z,10.86
2022-10-02T05:17:20.517Z,10.90
2022-10-02T05:20:00.748Z,10.93
2022-10-02T05:22:50.436Z,10.94
2022-10-02T05:25:30.467Z,10.96
2022-10-02T05:28:13.947Z,10.98
2022-10-02T05:30:47.591Z,11.01
2022-10-02T05:33:28.484Z,11.03
2022-10-02T05:36:06.709Z,11.08
2022-10-02T06:19:28.897Z,11.30
2022-10-02T06:22:16.090Z,11.54
2022-10-02T06:24:46.837Z,11.37
2022-10-02T06:27:19.043Z,11.41
2022-10-02T06:29:50.404Z,11.50
2022-10-02T06:32:29.137Z,11.41
2022-10-02T06:34:57.783Z,11.42
2022-10-02T06:37:41.757Z,11.38
2022-10-02T06:40:17.402Z,11.31
2022-10-02T06:42:53.359Z,11.34
2022-10-02T06:45:30.448Z,11.44
2022-10-02T06:48:07.000Z,11.20
2022-10-02T06:50:47.515Z,11.33
2022-10-02T06:53:23.205Z,11.16
2022-10-02T06:55:59.846Z,11.19
2022-10-02T06:58:43.352Z,11.14
2022-10-02T07:01:18.857Z,11.32
2022-10-02T07:03:56.968Z,11.38
2022-10-02T07:06:31.415Z,11.48
2022-10-02T07:09:23.344Z,11.57
2022-10-02T07:11:56.084Z,11.76
2022-10-02T07:14:32.468Z,12.01
2022-10-02T07:17:06.687Z,12.21
2022-10-02T07:19:50.371Z,12.58
2022-10-02T07:22:45.042Z,12.74
2022-10-02T07:25:27.808Z,12.96
2022-10-02T07:28:01.926Z,13.27
2022-10-02T07:30:31.651Z,13.25
2022-10-02T07:33:08.473Z,13.34
2022-10-02T07:35:39.534Z,13.27
2022-10-02T07:38:18.065Z,13.41
2022-10-02T07:40:51.986Z,13.44
2022-10-02T07:43:37.532Z,13.28
2022-10-02T07:46:10.334Z,13.11
2022-10-02T07:48:47.936Z,13.10
2022-10-02T07:51:38.306Z,13.13
2022-10-02T07:54:19.532Z,13.27
2022-10-02T07:56:50.472Z,13.31
2022-10-02T07:59:21.467Z,13.52
2022-10-02T08:01:52.740Z,14.08
2022-10-02T08:04:34.647Z,14.57
2022-10-02T08:07:07.383Z,14.96
2022-10-02T08:09:39.319Z,15.04
2022-10-02T08:12:13.099Z,15.14
2022-10-02T08:14:42.992Z,15.13
2022-10-02T08:17:13.802Z,15.23
2022-10-02T08:19:46.856Z,14.79
2022-10-02T08:22:21.483Z,14.82
2022-10-02T08:24:55.228Z,14.85
2022-10-02T08:27:27.084Z,14.92
2022-10-02T08:29:57.828Z,14.92
2022-10-02T08:32:34.547Z,14.99
2022-10-02T08:35:04.016Z,14.89
2022-10-02T08:37:39.783Z,14.82
2022-10-02T08:40:25.664Z,14.88
2022-10-02T08:43:24.282Z,15.03
2022-10-02T08:46:08.201Z,15.23
2022-10-02T08:48:55.998Z,15.34
2022-10-02T08:51:46.019Z,15.41
2022-10-02T08:54:29.837Z,15.40
2022-10-02T08:57:13.856Z,15.49
2022-10-02T09:00:04.936Z,15.55
2022-10-02T09:02:58.488Z,15.58
2022-10-02T09:05:42.692Z,15.59
2022-10-02T09:08:21.779Z,15.58
2022-10-02T09:11:11.511Z,15.56
2022-10-02T09:13:55.510Z,15.55
2022-10-02T09:16:30.705Z,15.43
2022-10-02T09:19:03.262Z,15.47
2022-10-02T09:21:52.114Z,15.46
2022-10-02T09:24:38.242Z,15.54
2022-10-02T09:27:31.767Z,15.56
2022-10-02T09:30:30.133Z,15.46
2022-10-02T09:33:24.334Z,15.39
2022-10-02T09:36:08.384Z,15.51
2022-10-02T09:38:52.246Z,15.38
2022-10-02T09:41:35.795Z,15.46
2022-10-02T09:44:18.716Z,15.50
2022-10-02T09:47:14.454Z,15.40
2022-10-02T09:49:58.301Z,15.37
2022-10-02T09:52:45.547Z,15.34
2022-10-02T09:55:35.480Z,15.32
2022-10-02T09:58:22.571Z,15.29
2022-10-02T10:01:03.856Z,15.22
2022-10-02T10:03:53.312Z,15.26
2022-10-02T10:06:40.407Z,15.33
2022-10-02T10:09:35.811Z,15.19
2022-10-02T10:12:13.844Z,15.19
2022-10-02T10:15:07.398Z,15.35
2022-10-02T10:18:04.238Z,15.59
2022-10-02T10:20:44.094Z,15.85
2022-10-02T10:23:42.327Z,15.90
2022-10-02T10:26:26.791Z,15.80
2022-10-02T10:29:11.578Z,15.84
2022-10-02T10:31:59.311Z,15.84
2022-10-02T10:34:46.608Z,15.83
2022-10-02T10:37:43.726Z,15.80
2022-10-02T10:40:30.076Z,15.70
2022-10-02T10:43:16.868Z,15.74
2022-10-02T10:45:57.827Z,16.07
2022-10-02T10:48:34.100Z,16.41
2022-10-02T10:51:14.903Z,16.63
2022-10-02T10:54:11.000Z,16.75
2022-10-02T10:56:56.652Z,16.94
2022-10-02T11:03:04.989Z,17.75
2022-10-02T11:15:07.468Z,17.49
2022-10-02T11:17:48.708Z,17.38
2022-10-02T11:32:58.693Z,16.84
2022-10-02T11:39:12.783Z,16.52
2022-10-02T11:42:16.473Z,16.44
2022-10-02T11:45:17.934Z,16.42
2022-10-02T11:51:15.460Z,16.38
2022-10-02T11:53:52.617Z,16.54
2022-10-02T11:56:35.279Z,16.59
2022-10-02T11:59:13.824Z,16.90
2022-10-02T12:01:47.602Z,17.06
2022-10-02T12:04:25.868Z,17.32
2022-10-02T12:07:06.940Z,17.65
2022-10-02T12:09:42.366Z,18.94
2022-10-02T12:12:17.860Z,20.07
2022-10-02T12:14:51.648Z,21.09
2022-10-02T12:17:28.384Z,23.00
2022-10-02T12:20:21.972Z,24.53
2022-10-02T12:23:13.107Z,25.67
2022-10-02T12:26:03.460Z,26.31
2022-10-02T12:28:36.387Z,26.79
2022-10-02T12:31:07.826Z,26.96
2022-10-02T12:33:44.676Z,27.42
2022-10-02T12:36:19.833Z,27.37
2022-10-02T12:38:55.789Z,26.75
2022-10-02T12:41:41.738Z,25.64
2022-10-02T12:44:25.462Z,24.68
2022-10-02T12:47:05.009Z,23.94
2022-10-02T12:49:38.979Z,22.72
2022-10-02T12:52:16.232Z,22.14
2022-10-02T12:55:00.828Z,21.54
2022-10-02T12:57:55.238Z,20.88
2022-10-02T13:00:24.741Z,20.42
2022-10-02T13:03:13.829Z,20.07
2022-10-02T13:05:52.996Z,19.91
2022-10-02T13:08:41.575Z,19.54
2022-10-02T13:11:14.956Z,19.15
2022-10-02T13:13:50.232Z,18.68
2022-10-02T13:16:25.023Z,18.39
2022-10-02T13:19:05.827Z,18.15
2022-10-02T13:21:39.234Z,17.83
2022-10-02T13:24:14.788Z,17.67
2022-10-02T13:26:47.037Z,17.49
2022-10-02T13:29:25.958Z,17.08
2022-10-02T13:32:04.408Z,16.79
2022-10-02T13:34:53.441Z,16.56
2022-10-02T13:37:28.425Z,16.35
2022-10-02T13:40:12.852Z,16.20
2022-10-02T13:42:49.485Z,15.96
2022-10-02T13:45:19.860Z,15.52
2022-10-02T13:47:55.091Z,15.29
2022-10-02T13:50:44.367Z,15.14
2022-10-02T13:53:20.521Z,15.02
2022-10-02T13:55:51.845Z,14.90
2022-10-02T13:58:34.688Z,14.84
2022-10-02T14:01:20.512Z,14.71
2022-10-02T14:04:03.564Z,14.65
2022-10-02T14:06:36.480Z,14.50
2022-10-02T14:09:11.411Z,14.51
2022-10-02T14:11:46.993Z,14.50
2022-10-02T14:14:25.585Z,14.45
2022-10-02T14:17:00.840Z,14.41
2022-10-02T14:19:38.473Z,14.37
2022-10-02T14:22:21.777Z,14.25
2022-10-02T14:25:04.652Z,14.24
2022-10-02T14:27:57.038Z,14.17
2022-10-02T14:30:30.308Z,14.14
2022-10-02T14:33:04.051Z,14.11
2022-10-02T14:35:45.855Z,14.03
2022-10-02T14:38:31.986Z,14.03
2022-10-02T14:41:10.244Z,14.02
2022-10-02T14:46:51.936Z,13.92
2022-10-02T14:49:36.843Z,13.94
2022-10-02T14:55:43.191Z,13.90
2022-10-02T14:58:20.631Z,13.87
2022-10-02T15:00:59.376Z,13.86
2022-10-02T15:03:52.049Z,13.85
2022-10-02T15:06:24.717Z,13.82
2022-10-02T15:08:56.402Z,13.76
2022-10-02T15:11:29.216Z,13.81
2022-10-02T15:14:05.542Z,13.82
2022-10-02T15:17:03.349Z,13.83
2022-10-02T15:19:38.288Z,13.81
2022-10-02T15:22:15.297Z,13.82
2022-10-02T15:24:50.927Z,13.81
2022-10-02T15:27:28.941Z,13.77
2022-10-02T15:30:15.648Z,13.87
2022-10-02T15:33:15.961Z,13.88
2022-10-02T15:35:53.018Z,13.81
2022-10-02T15:38:54.706Z,13.69
2022-10-02T15:41:53.768Z,13.62
2022-10-02T15:44:53.217Z,13.55
2022-10-02T15:47:42.634Z,13.52
2022-10-02T15:50:17.224Z,13.52
2022-10-02T15:52:59.252Z,13.51
2022-10-02T15:58:27.991Z,13.53
2022-10-02T16:01:15.207Z,13.41
2022-10-02T16:03:49.270Z,13.43
2022-10-02T16:06:23.329Z,13.40
2022-10-02T16:09:01.622Z,13.40
2022-10-02T16:11:44.927Z,13.41
2022-10-02T16:14:16.283Z,13.40
2022-10-02T16:17:07.771Z,13.41
2022-10-02T16:22:43.850Z,13.41
2022-10-02T16:25:20.454Z,13.24
2022-10-02T16:28:00.323Z,13.42
2022-10-02T16:30:34.265Z,13.36
2022-10-02T16:36:11.288Z,13.37
2022-10-02T16:39:11.064Z,13.35
2022-10-02T16:41:44.221Z,13.37
2022-10-02T16:47:46.028Z,13.47
2022-10-02T16:50:23.977Z,13.42
2022-10-02T16:52:57.521Z,13.48
2022-10-02T16:55:32.286Z,13.49
2022-10-02T16:58:35.280Z,13.45
2022-10-02T17:01:06.528Z,13.38
2022-10-02T17:03:39.228Z,13.33
2022-10-02T17:06:12.351Z,13.22
2022-10-02T17:08:43.881Z,13.10
2022-10-02T17:14:30.162Z,12.94
2022-10-02T17:17:04.089Z,12.96
2022-10-02T17:25:29.904Z,13.01
2022-10-02T17:28:03.213Z,13.08
2022-10-02T17:30:45.731Z,13.10
2022-10-02T17:33:17.799Z,13.14
2022-10-02T17:35:50.578Z,13.05
2022-10-02T17:38:32.560Z,12.87
2022-10-02T17:41:08.292Z,12.84
2022-10-02T17:43:42.437Z,12.71
2022-10-02T17:46:32.051Z,12.67
2022-10-02T17:49:05.551Z,12.60
2022-10-02T17:52:00.054Z,12.58
2022-10-02T17:54:49.365Z,12.60
2022-10-02T17:57:34.032Z,12.60
2022-10-02T18:06:09.716Z,12.00
2022-10-02T18:08:52.690Z,11.84
2022-10-02T18:11:30.136Z,11.78
2022-10-02T18:14:04.935Z,11.71
2022-10-02T18:16:37.645Z,11.71
2022-10-02T18:19:22.208Z,11.67
2022-10-02T18:21:59.521Z,11.66
2022-10-02T18:24:45.148Z,11.61
2022-10-02T18:27:23.189Z,11.54
2022-10-02T18:30:05.040Z,11.58
2022-10-02T18:32:44.830Z,11.54
2022-10-02T18:35:22.332Z,11.49
2022-10-02T18:37:57.901Z,11.46
2022-10-02T18:46:24.161Z,11.27
2022-10-02T18:51:58.347Z,11.32
2022-10-02T18:54:33.966Z,11.38
2022-10-02T18:57:14.216Z,11.34
2022-10-02T18:59:53.136Z,11.28
2022-10-02T19:02:30.775Z,11.26
2022-10-02T19:05:12.554Z,11.23
2022-10-02T19:07:43.626Z,11.25
2022-10-02T19:10:29.085Z,11.33
2022-10-02T19:12:58.706Z,11.34
2022-10-02T19:15:28.535Z,11.34
2022-10-02T19:18:01.278Z,11.38
2022-10-02T19:20:43.566Z,11.34
2022-10-02T19:23:18.909Z,11.40
2022-10-02T19:25:50.848Z,11.48
2022-10-02T19:28:22.015Z,11.52
2022-10-02T19:30:52.513Z,11.50
2022-10-02T19:33:28.005Z,11.45
2022-10-02T19:36:08.531Z,11.41
2022-10-02T19:38:39.488Z,11.35
2022-10-02T19:41:16.663Z,11.37
2022-10-02T19:43:58.691Z,11.36
2022-10-02T19:55:29.887Z,11.42
2022-10-02T19:58:09.569Z,11.49
2022-10-02T20:00:41.305Z,11.49
2022-10-02T20:03:15.610Z,11.52
2022-10-02T20:05:46.467Z,11.55
2022-10-02T20:08:18.241Z,11.60
2022-10-02T20:10:51.980Z,11.57
2022-10-02T20:13:28.457Z,11.62
2022-10-02T20:16:17.171Z,11.67
2022-10-02T20:18:50.749Z,11.70
2022-10-02T20:21:21.538Z,11.74
2022-10-02T20:23:52.027Z,11.74
2022-10-02T20:26:24.001Z,11.74
2022-10-02T20:28:57.777Z,11.73
2022-10-02T20:31:32.622Z,11.73
2022-10-02T20:34:05.870Z,11.75
2022-10-02T20:36:38.652Z,11.78
2022-10-02T20:39:10.385Z,11.75
2022-10-02T20:41:44.735Z,11.82
2022-10-02T20:44:18.434Z,11.85
2022-10-02T20:47:13.915Z,11.89
2022-10-02T20:53:05.571Z,11.85
2022-10-02T23:10:22.986Z,13.47
2022-10-02T23:23:42.619Z,13.71
